Time;durP1;ratioP1;P1;durP2;ratioP2;P2;SDS_P1;SDS_P2;PMS_P1;PMS_P2;Temp;Humidity;BMP_temperature;BMP_pressure;BME280_temperature;BME280_humidity;BME280_pressure;Samples;Min_cycle;Max_cycle;Signal;HPM_P1;HPM_P2
2024/03/19 00:01:07;;;;;;;19.20;9.82;;;;;;;;;;5105896;28;20035;-41
2024/03/19 00:03:33;;;;;;;22.73;9.82;;;;;;;;;;5105297;28;20091;-40
2024/03/19 00:06:00;;;;;;;24.05;10.05;;;;;;;;;;5105119;28;20023;-39
2024/03/19 00:08:26;;;;;;;17.98;9.30;;;;;;;;;;5105035;28;20089;-40
2024/03/19 00:10:53;;;;;;;17.67;8.88;;;;;;;;;;5105270;28;20075;-40
2024/03/19 00:13:19;;;;;;;22.80;9.30;;;;;;;;;;5104933;28;20338;-48
2024/03/19 00:15:46;;;;;;;16.20;8.90;;;;;;;;;;5105338;28;20343;-47
2024/03/19 00:18:13;;;;;;;17.95;9.23;;;;;;;;;;5104714;28;20016;-46
2024/03/19 00:20:39;;;;;;;17.48;8.43;;;;;;;;;;5105185;28;20051;-47
2024/03/19 00:23:06;;;;;;;20.48;8.75;;;;;;;;;;5105114;28;20244;-46
2024/03/19 00:25:32;;;;;;;12.95;7.43;;;;;;;;;;5105091;28;20020;-44
2024/03/19 00:27:59;;;;;;;14.90;7.38;;;;;;;;;;5104966;28;20020;-41
2024/03/19 00:30:25;;;;;;;17.00;8.18;;;;;;;;;;5104918;28;20027;-41
2024/03/19 00:32:52;;;;;;;16.85;8.73;;;;;;;;;;5104531;28;20024;-40
2024/03/19 00:35:19;;;;;;;15.30;8.40;;;;;;;;;;5104515;28;20386;-39
2024/03/19 00:37:45;;;;;;;19.48;8.45;;;;;;;;;;5104570;28;20039;-39
2024/03/19 00:40:12;;;;;;;42.63;10.93;;;;;;;;;;5104636;28;20028;-38
2024/03/19 00:42:43;;;;;;;33.67;9.15;;;;;;;;;;5104403;28;20039;-43
2024/03/19 00:45:10;;;;;;;20.42;8.07;;;;;;;;;;5104625;28;20032;-43
2024/03/19 00:47:37;;;;;;;16.83;8.35;;;;;;;;;;5104371;28;20088;-47
2024/03/19 00:50:05;;;;;;;26.02;14.07;;;;;;;;;;5104154;28;20327;-42
2024/03/19 00:52:32;;;;;;;24.05;13.18;;;;;;;;;;5104427;28;20099;-44
2024/03/19 00:54:59;;;;;;;19.33;10.52;;;;;;;;;;5104207;28;20027;-46
2024/03/19 00:57:26;;;;;;;19.88;11.00;;;;;;;;;;5104214;28;20039;-42
2024/03/19 00:59:52;;;;;;;20.10;9.55;;;;;;;;;;5104373;28;20405;-38
2024/03/19 01:02:19;;;;;;;15.55;8.63;;;;;;;;;;5104120;28;20020;-48
2024/03/19 01:04:46;;;;;;;15.93;9.10;;;;;;;;;;5104495;28;20050;-41
2024/03/19 01:07:12;;;;;;;16.08;8.10;;;;;;;;;;5104130;28;20020;-41
2024/03/19 01:09:39;;;;;;;13.65;7.55;;;;;;;;;;5104201;28;20024;-48
2024/03/19 01:12:08;;;;;;;11.35;8.02;;;;;;;;;;5103917;28;20013;-49
2024/03/19 01:14:35;;;;;;;16.80;8.45;;;;;;;;;;5104108;28;20094;-50
2024/03/19 01:17:03;;;;;;;16.83;8.48;;;;;;;;;;5103952;28;20016;-46
2024/03/19 01:19:30;;;;;;;18.75;8.85;;;;;;;;;;5103984;28;20062;-44
2024/03/19 01:21:56;;;;;;;23.10;8.70;;;;;;;;;;5104137;28;20024;-50
2024/03/19 01:24:23;;;;;;;19.13;8.80;;;;;;;;;;5104116;28;20031;-46
2024/03/19 01:26:50;;;;;;;20.48;8.98;;;;;;;;;;5103851;28;20169;-39
2024/03/19 01:29:16;;;;;;;19.08;8.52;;;;;;;;;;5103865;28;20020;-41
2024/03/19 01:31:43;;;;;;;22.55;9.05;;;;;;;;;;5103931;28;20016;-41
2024/03/19 01:34:09;;;;;;;20.00;8.57;;;;;;;;;;5103752;28;20016;-43
2024/03/19 01:36:36;;;;;;;21.48;10.23;;;;;;;;;;5103805;28;20096;-45
2024/03/19 01:39:02;;;;;;;25.45;14.30;;;;;;;;;;5103868;28;20024;-40
2024/03/19 01:41:29;;;;;;;25.42;12.48;;;;;;;;;;5104036;28;20031;-41
2024/03/19 01:43:56;;;;;;;20.00;10.90;;;;;;;;;;5103939;28;20020;-44
2024/03/19 01:46:29;;;;;;;18.88;10.02;;;;;;;;;;5104058;28;20070;-47
2024/03/19 01:48:56;;;;;;;15.48;9.25;;;;;;;;;;5103636;28;20020;-39
2024/03/19 01:51:23;;;;;;;18.55;9.45;;;;;;;;;;5103691;28;20086;-40
2024/03/19 01:53:50;;;;;;;15.90;8.95;;;;;;;;;;5103812;28;20027;-45
2024/03/19 01:56:18;;;;;;;14.85;9.07;;;;;;;;;;5104400;28;20238;-46
2024/03/19 01:58:49;;;;;;;17.15;8.88;;;;;;;;;;5103684;28;20020;-46
2024/03/19 02:01:16;;;;;;;11.77;8.23;;;;;;;;;;5104147;28;20346;-44
2024/03/19 02:03:46;;;;;;;17.35;9.45;;;;;;;;;;5103912;28;20117;-44
2024/03/19 02:06:14;;;;;;;14.88;9.98;;;;;;;;;;5106116;28;20028;-38
2024/03/19 02:08:56;;;;;;;15.23;9.38;;;;;;;;;;5107208;28;20020;-42
2024/03/19 02:11:23;;;;;;;12.77;8.82;;;;;;;;;;5107432;28;20040;-45
2024/03/19 02:13:50;;;;;;;15.90;8.68;;;;;;;;;;5107385;28;20012;-48
2024/03/19 02:16:16;;;;;;;17.35;8.80;;;;;;;;;;5107658;28;20028;-43
2024/03/19 02:18:43;;;;;;;13.05;7.95;;;;;;;;;;5107344;28;20084;-44
2024/03/19 02:21:09;;;;;;;11.27;8.40;;;;;;;;;;5107621;28;20032;-43
2024/03/19 02:23:36;;;;;;;12.20;8.45;;;;;;;;;;5106992;28;20019;-39
2024/03/19 02:26:02;;;;;;;13.35;7.70;;;;;;;;;;5107604;28;20051;-44
2024/03/19 02:28:29;;;;;;;14.27;8.18;;;;;;;;;;5107018;28;20079;-40
2024/03/19 02:30:55;;;;;;;13.52;7.78;;;;;;;;;;5107323;28;20369;-45
2024/03/19 02:33:22;;;;;;;11.40;7.95;;;;;;;;;;5106995;28;20016;-44
2024/03/19 02:35:48;;;;;;;13.85;7.85;;;;;;;;;;5106778;28;20427;-44
2024/03/19 02:38:15;;;;;;;12.13;7.85;;;;;;;;;;5106771;28;20323;-44
2024/03/19 02:40:44;;;;;;;13.15;8.20;;;;;;;;;;5107174;28;20091;-47
2024/03/19 02:43:10;;;;;;;15.50;7.93;;;;;;;;;;5106858;28;20023;-46
2024/03/19 02:45:37;;;;;;;14.68;7.53;;;;;;;;;;5106968;28;20028;-47
2024/03/19 02:48:03;;;;;;;15.57;8.18;;;;;;;;;;5106696;28;20150;-48
2024/03/19 02:50:30;;;;;;;14.20;7.82;;;;;;;;;;5106964;28;20087;-42
2024/03/19 02:52:56;;;;;;;15.23;7.70;;;;;;;;;;5106481;28;20020;-42
2024/03/19 02:55:23;;;;;;;15.05;7.82;;;;;;;;;;5106866;28;20050;-41
2024/03/19 02:57:50;;;;;;;14.13;7.28;;;;;;;;;;5106724;28;20203;-41
2024/03/19 03:00:16;;;;;;;12.15;7.85;;;;;;;;;;5106513;28;20024;-40
2024/03/19 03:02:43;;;;;;;15.50;8.05;;;;;;;;;;5106475;28;20023;-40
2024/03/19 03:05:10;;;;;;;10.52;7.00;;;;;;;;;;5106584;28;20089;-42
2024/03/19 03:07:36;;;;;;;13.10;7.90;;;;;;;;;;5106163;28;20125;-41
2024/03/19 03:10:03;;;;;;;16.73;8.30;;;;;;;;;;5106419;28;20028;-46
2024/03/19 03:12:30;;;;;;;12.90;7.32;;;;;;;;;;5106185;28;20016;-46
2024/03/19 03:14:56;;;;;;;12.88;7.70;;;;;;;;;;5106333;28;20262;-46
2024/03/19 03:17:23;;;;;;;14.48;8.15;;;;;;;;;;5105974;28;20243;-51
2024/03/19 03:19:51;;;;;;;10.95;7.40;;;;;;;;;;5105877;28;20319;-47
2024/03/19 03:22:17;;;;;;;13.52;8.55;;;;;;;;;;5105954;28;20263;-46
2024/03/19 03:24:45;;;;;;;12.30;8.23;;;;;;;;;;5106175;28;20031;-52
2024/03/19 03:27:11;;;;;;;16.92;8.43;;;;;;;;;;5106117;28;20024;-52
2024/03/19 03:29:38;;;;;;;11.90;8.15;;;;;;;;;;5105905;28;20035;-47
2024/03/19 03:32:05;;;;;;;12.70;8.45;;;;;;;;;;5105996;28;20016;-47
2024/03/19 03:34:35;;;;;;;17.25;8.90;;;;;;;;;;5105610;28;20103;-48
2024/03/19 03:37:02;;;;;;;12.15;8.60;;;;;;;;;;5105709;28;20016;-45
2024/03/19 03:39:29;;;;;;;12.93;8.27;;;;;;;;;;5105733;28;20032;-47
2024/03/19 03:41:55;;;;;;;13.80;8.80;;;;;;;;;;5105638;28;20047;-48
2024/03/19 03:44:22;;;;;;;16.75;9.35;;;;;;;;;;5105631;28;20039;-47
2024/03/19 03:46:48;;;;;;;14.30;8.70;;;;;;;;;;5105723;28;20016;-49
2024/03/19 03:49:15;;;;;;;13.60;8.55;;;;;;;;;;5105453;28;20042;-54
2024/03/19 03:51:42;;;;;;;12.88;8.18;;;;;;;;;;5105401;28;20027;-48
2024/03/19 03:54:08;;;;;;;14.00;9.07;;;;;;;;;;5105600;28;20022;-47
2024/03/19 03:56:35;;;;;;;14.88;9.00;;;;;;;;;;5105452;28;20357;-46
2024/03/19 03:59:03;;;;;;;13.18;9.00;;;;;;;;;;5105589;28;20036;-46
2024/03/19 04:01:29;;;;;;;12.73;8.90;;;;;;;;;;5105135;28;20023;-53
2024/03/19 04:03:56;;;;;;;13.65;8.65;;;;;;;;;;5105303;28;20058;-51
2024/03/19 04:06:22;;;;;;;13.20;9.05;;;;;;;;;;5105106;28;20096;-47
2024/03/19 04:08:49;;;;;;;14.27;8.95;;;;;;;;;;5104956;28;20054;-41
2024/03/19 04:11:15;;;;;;;14.75;9.30;;;;;;;;;;5105617;28;20024;-42
2024/03/19 04:13:42;;;;;;;18.90;9.05;;;;;;;;;;5105097;28;20039;-44
2024/03/19 04:16:09;;;;;;;19.20;8.75;;;;;;;;;;5105345;28;20069;-42
2024/03/19 04:18:35;;;;;;;30.85;9.68;;;;;;;;;;5105047;28;20019;-42
2024/03/19 04:21:02;;;;;;;29.77;10.15;;;;;;;;;;5105275;28;20028;-45
2024/03/19 04:23:28;;;;;;;41.97;11.23;;;;;;;;;;5104741;28;20066;-46
2024/03/19 04:25:55;;;;;;;32.38;10.50;;;;;;;;;;5105247;28;20092;-51
2024/03/19 04:28:21;;;;;;;22.02;10.27;;;;;;;;;;5104226;28;20043;-49
2024/03/19 04:30:48;;;;;;;20.08;9.85;;;;;;;;;;5105030;28;20028;-46
2024/03/19 04:33:14;;;;;;;21.10;9.75;;;;;;;;;;5104625;28;20030;-52
2024/03/19 04:35:41;;;;;;;22.15;10.23;;;;;;;;;;5104585;28;20047;-46
2024/03/19 04:38:09;;;;;;;15.77;9.52;;;;;;;;;;5104430;28;20031;-52
2024/03/19 04:40:36;;;;;;;17.33;10.02;;;;;;;;;;5105071;28;20074;-48
2024/03/19 04:43:02;;;;;;;19.25;10.05;;;;;;;;;;5104572;28;20051;-43
2024/03/19 04:45:29;;;;;;;16.00;9.77;;;;;;;;;;5104718;28;20284;-40
2024/03/19 04:47:55;;;;;;;22.40;11.20;;;;;;;;;;5104501;28;20048;-40
2024/03/19 04:50:23;;;;;;;22.70;11.65;;;;;;;;;;5104649;28;20032;-42
2024/03/19 04:52:53;;;;;;;25.33;12.55;;;;;;;;;;5104341;28;20023;-47
2024/03/19 04:55:19;;;;;;;32.47;13.52;;;;;;;;;;5104681;28;20023;-47
2024/03/19 04:57:46;;;;;;;28.35;13.90;;;;;;;;;;5104477;28;20020;-45
2024/03/19 05:00:16;;;;;;;21.17;12.95;;;;;;;;;;5104493;28;20042;-46
2024/03/19 05:02:44;;;;;;;23.85;14.10;;;;;;;;;;5104206;28;20024;-51
2024/03/19 05:05:12;;;;;;;23.38;13.38;;;;;;;;;;5104483;28;20091;-57
2024/03/19 05:07:40;;;;;;;21.05;14.02;;;;;;;;;;5104268;28;20050;-48
2024/03/19 05:10:08;;;;;;;22.20;13.48;;;;;;;;;;5104312;28;20057;-49
2024/03/19 05:12:34;;;;;;;21.35;13.93;;;;;;;;;;5104159;28;20091;-48
2024/03/19 05:15:03;;;;;;;21.20;12.98;;;;;;;;;;5104246;28;20020;-48
2024/03/19 05:17:29;;;;;;;19.02;12.07;;;;;;;;;;5104101;28;20020;-48
2024/03/19 05:19:56;;;;;;;18.83;13.02;;;;;;;;;;5104171;28;20059;-53
2024/03/19 05:22:22;;;;;;;16.13;12.38;;;;;;;;;;5104018;28;20086;-51
2024/03/19 05:24:49;;;;;;;21.83;12.70;;;;;;;;;;5104244;28;20032;-49
2024/03/19 05:27:16;;;;;;;15.75;11.20;;;;;;;;;;5104058;28;20019;-49
2024/03/19 05:29:42;;;;;;;21.40;12.60;;;;;;;;;;5104097;28;20319;-49
2024/03/19 05:32:09;;;;;;;16.90;11.70;;;;;;;;;;5104036;28;20020;-51
2024/03/19 05:34:37;;;;;;;17.40;11.43;;;;;;;;;;5103760;28;20044;-49
2024/03/19 05:37:03;;;;;;;18.55;11.75;;;;;;;;;;5103873;28;20211;-53
2024/03/19 05:39:30;;;;;;;16.52;11.85;;;;;;;;;;5104198;28;20036;-48
2024/03/19 05:41:57;;;;;;;14.35;11.35;;;;;;;;;;5107302;28;20083;-50
2024/03/19 05:44:23;;;;;;;14.23;11.13;;;;;;;;;;5107951;28;20087;-53
2024/03/19 05:46:50;;;;;;;13.57;11.13;;;;;;;;;;5107971;28;20331;-49
2024/03/19 05:49:16;;;;;;;18.45;11.40;;;;;;;;;;5107738;28;20324;-54
2024/03/19 05:51:43;;;;;;;18.45;11.65;;;;;;;;;;5107846;28;20081;-49
2024/03/19 05:54:11;;;;;;;15.45;10.98;;;;;;;;;;5107639;28;20084;-51
2024/03/19 05:56:38;;;;;;;15.23;10.52;;;;;;;;;;5107770;28;20020;-52
2024/03/19 05:59:05;;;;;;;14.52;10.85;;;;;;;;;;5107699;28;20026;-51
2024/03/19 06:01:32;;;;;;;17.48;11.20;;;;;;;;;;5107510;28;20020;-47
2024/03/19 06:04:01;;;;;;;12.23;10.82;;;;;;;;;;5107487;28;20250;-48
2024/03/19 06:06:28;;;;;;;17.58;11.73;;;;;;;;;;5107599;28;20020;-52
2024/03/19 06:08:55;;;;;;;16.55;10.95;;;;;;;;;;5107336;28;20219;-48
2024/03/19 06:11:22;;;;;;;14.32;10.80;;;;;;;;;;5107976;28;20095;-46
2024/03/19 06:13:48;;;;;;;12.70;10.50;;;;;;;;;;5107431;28;20020;-46
2024/03/19 06:16:16;;;;;;;16.58;10.88;;;;;;;;;;5107704;28;20024;-46
2024/03/19 06:18:42;;;;;;;13.00;10.13;;;;;;;;;;5107620;28;20404;-46
2024/03/19 06:21:09;;;;;;;12.07;9.85;;;;;;;;;;5107652;28;20095;-47
2024/03/19 06:23:36;;;;;;;13.93;10.02;;;;;;;;;;5107094;28;20027;-46
2024/03/19 06:26:03;;;;;;;11.55;9.90;;;;;;;;;;5107655;28;20074;-47
2024/03/19 06:28:29;;;;;;;13.55;9.25;;;;;;;;;;5107018;28;20020;-46
2024/03/19 06:30:56;;;;;;;12.50;10.07;;;;;;;;;;5107350;28;20028;-40
2024/03/19 06:33:22;;;;;;;10.65;8.82;;;;;;;;;;5107032;28;20263;-40
2024/03/19 06:35:52;;;;;;;12.65;9.82;;;;;;;;;;5106871;28;20259;-48
2024/03/19 06:38:19;;;;;;;12.82;9.30;;;;;;;;;;5107148;28;20016;-42
2024/03/19 06:40:45;;;;;;;12.10;8.90;;;;;;;;;;5107715;28;20027;-40
2024/03/19 06:43:12;;;;;;;12.88;8.70;;;;;;;;;;5106826;28;20016;-40
2024/03/19 06:45:38;;;;;;;10.48;9.00;;;;;;;;;;5107067;28;20032;-40
2024/03/19 06:48:05;;;;;;;9.48;8.48;;;;;;;;;;5106810;28;20118;-40
2024/03/19 06:50:32;;;;;;;13.60;8.82;;;;;;;;;;5106986;28;20250;-40
2024/03/19 06:52:58;;;;;;;13.43;8.57;;;;;;;;;;5106287;28;20316;-40
2024/03/19 06:55:25;;;;;;;10.55;8.95;;;;;;;;;;5106875;28;20288;-40
2024/03/19 06:57:52;;;;;;;10.32;8.43;;;;;;;;;;5106590;28;20369;-39
2024/03/19 07:00:22;;;;;;;13.18;8.48;;;;;;;;;;5106672;28;20052;-40
2024/03/19 07:02:49;;;;;;;12.80;8.43;;;;;;;;;;5106732;28;20069;-40
2024/03/19 07:05:16;;;;;;;13.40;8.85;;;;;;;;;;5106781;28;20032;-42
2024/03/19 07:07:42;;;;;;;13.48;8.50;;;;;;;;;;5106216;28;20203;-40
2024/03/19 07:10:10;;;;;;;11.73;8.75;;;;;;;;;;5106510;28;20085;-43
2024/03/19 07:12:39;;;;;;;13.70;8.38;;;;;;;;;;5106297;28;20020;-42
2024/03/19 07:15:10;;;;;;;26.73;10.00;;;;;;;;;;5106274;28;20024;-55
2024/03/19 07:17:38;;;;;;;63.60;13.48;;;;;;;;;;5106174;28;20083;-50
2024/03/19 07:20:09;;;;;;;68.55;13.23;;;;;;;;;;5106060;28;20228;-47
2024/03/19 07:22:42;;;;;;;42.35;11.32;;;;;;;;;;5106069;28;20016;-46
2024/03/19 07:25:10;;;;;;;24.63;10.35;;;;;;;;;;5106202;28;20032;-49
2024/03/19 07:27:37;;;;;;;27.20;9.90;;;;;;;;;;5105859;28;20024;-46
2024/03/19 07:30:08;;;;;;;16.10;9.25;;;;;;;;;;5106191;28;20189;-46
2024/03/19 07:32:34;;;;;;;16.02;9.60;;;;;;;;;;5105861;28;20020;-41
2024/03/19 07:35:02;;;;;;;33.42;11.55;;;;;;;;;;5105712;28;20047;-41
2024/03/19 07:37:28;;;;;;;64.03;14.20;;;;;;;;;;5105776;28;20319;-42
2024/03/19 07:39:57;;;;;;;117.45;16.67;;;;;;;;;;5105973;28;20036;-53
2024/03/19 07:42:24;;;;;;;142.48;19.60;;;;;;;;;;5105549;28;20207;-47
2024/03/19 07:44:51;;;;;;;124.82;17.73;;;;;;;;;;5105881;28;20043;-48
2024/03/19 07:47:18;;;;;;;87.47;15.68;;;;;;;;;;5105573;28;20354;-51
2024/03/19 07:49:48;;;;;;;76.43;14.20;;;;;;;;;;5105416;28;20043;-50
2024/03/19 07:52:14;;;;;;;73.20;13.82;;;;;;;;;;5105517;28;20020;-46
2024/03/19 07:54:41;;;;;;;42.95;11.82;;;;;;;;;;5105682;28;20065;-45
2024/03/19 07:57:08;;;;;;;44.40;12.85;;;;;;;;;;5105249;28;20012;-48
2024/03/19 07:59:35;;;;;;;27.60;11.20;;;;;;;;;;5105537;28;20035;-53
2024/03/19 08:02:04;;;;;;;34.53;11.98;;;;;;;;;;5105285;28;20023;-54
2024/03/19 08:04:31;;;;;;;25.15;11.93;;;;;;;;;;5104332;28;20023;-52
2024/03/19 08:06:58;;;;;;;26.77;12.32;;;;;;;;;;5105354;28;20020;-51
2024/03/19 08:09:24;;;;;;;26.33;12.35;;;;;;;;;;5105129;28;20028;-58
2024/03/19 08:11:51;;;;;;;31.98;12.13;;;;;;;;;;5105273;28;20308;-56
2024/03/19 08:14:18;;;;;;;29.65;12.88;;;;;;;;;;5105059;28;20083;-43
2024/03/19 08:16:44;;;;;;;29.02;12.77;;;;;;;;;;5105146;28;20015;-42
2024/03/19 08:19:12;;;;;;;54.65;17.08;;;;;;;;;;5104747;28;20031;-39
2024/03/19 08:21:39;;;;;;;50.83;16.55;;;;;;;;;;5105291;28;20020;-41
2024/03/19 08:24:06;;;;;;;65.88;18.50;;;;;;;;;;5104809;28;20111;-46
2024/03/19 08:26:35;;;;;;;66.75;17.92;;;;;;;;;;5104749;28;20019;-39
2024/03/19 08:29:02;;;;;;;68.68;17.23;;;;;;;;;;5104629;28;20252;-46
2024/03/19 08:31:28;;;;;;;85.47;20.35;;;;;;;;;;5104941;28;20020;-42
2024/03/19 08:33:55;;;;;;;84.65;20.30;;;;;;;;;;5104681;28;20023;-44
2024/03/19 08:36:21;;;;;;;66.55;19.20;;;;;;;;;;5104886;28;20040;-44
2024/03/19 08:38:48;;;;;;;58.38;17.65;;;;;;;;;;5104754;28;20250;-47
2024/03/19 08:41:14;;;;;;;53.33;17.30;;;;;;;;;;5104970;28;20074;-48
2024/03/19 08:43:45;;;;;;;41.58;16.30;;;;;;;;;;5104693;28;20335;-39
2024/03/19 08:46:14;;;;;;;36.25;16.42;;;;;;;;;;5104994;28;20035;-40
2024/03/19 08:48:40;;;;;;;36.25;16.50;;;;;;;;;;5104292;28;20028;-40
2024/03/19 08:51:07;;;;;;;32.35;16.58;;;;;;;;;;5104982;28;20031;-48
2024/03/19 08:53:33;;;;;;;26.50;15.32;;;;;;;;;;5104497;28;20058;-40
2024/03/19 08:56:00;;;;;;;23.05;15.57;;;;;;;;;;5104653;28;20020;-41
2024/03/19 08:58:27;;;;;;;21.27;15.50;;;;;;;;;;5104363;28;20027;-39
2024/03/19 09:00:53;;;;;;;27.88;16.02;;;;;;;;;;5104783;28;20351;-42
2024/03/19 09:03:20;;;;;;;20.77;14.90;;;;;;;;;;5104217;28;20016;-39
2024/03/19 09:05:46;;;;;;;24.88;15.40;;;;;;;;;;5104604;28;20327;-42
2024/03/19 09:08:14;;;;;;;21.15;15.77;;;;;;;;;;5104232;28;20023;-47
2024/03/19 09:10:41;;;;;;;22.42;14.73;;;;;;;;;;5104394;28;20031;-45
2024/03/19 09:13:07;;;;;;;17.23;14.00;;;;;;;;;;5104153;28;20073;-45
2024/03/19 09:15:34;;;;;;;19.23;14.32;;;;;;;;;;5104343;28;20058;-43
2024/03/19 09:18:01;;;;;;;18.55;14.38;;;;;;;;;;5104176;28;20023;-42
2024/03/19 09:20:27;;;;;;;22.55;14.77;;;;;;;;;;5104171;28;20242;-39
2024/03/19 09:22:54;;;;;;;18.25;14.32;;;;;;;;;;5104061;28;20043;-39
2024/03/19 09:25:21;;;;;;;17.27;14.48;;;;;;;;;;5104320;28;20150;-40
2024/03/19 09:27:48;;;;;;;21.45;14.60;;;;;;;;;;5103863;28;20029;-40
2024/03/19 09:30:15;;;;;;;19.15;15.32;;;;;;;;;;5104161;28;20031;-47
2024/03/19 09:32:41;;;;;;;18.58;15.45;;;;;;;;;;5104022;28;20027;-40
2024/03/19 09:35:08;;;;;;;22.73;16.15;;;;;;;;;;5103710;28;20040;-40
2024/03/19 09:37:36;;;;;;;25.05;16.67;;;;;;;;;;5104110;28;20238;-42
2024/03/19 09:40:06;;;;;;;18.40;15.95;;;;;;;;;;5104426;28;20020;-40
2024/03/19 09:42:32;;;;;;;18.83;15.82;;;;;;;;;;5104038;28;20094;-39
2024/03/19 09:45:00;;;;;;;19.42;15.57;;;;;;;;;;5104160;28;20184;-39
2024/03/19 09:47:27;;;;;;;24.25;18.10;;;;;;;;;;5103857;28;20079;-46
2024/03/19 09:49:54;;;;;;;26.73;18.20;;;;;;;;;;5103706;28;20062;-42
2024/03/19 09:52:22;;;;;;;28.15;17.73;;;;;;;;;;5103830;28;20020;-38
2024/03/19 09:54:49;;;;;;;23.17;17.40;;;;;;;;;;5103876;28;20339;-40
2024/03/19 09:57:17;;;;;;;22.27;17.75;;;;;;;;;;5103570;28;20331;-42
2024/03/19 09:59:47;;;;;;;19.23;16.63;;;;;;;;;;5103931;28;20196;-48
2024/03/19 10:02:18;;;;;;;22.15;16.20;;;;;;;;;;5103735;28;20024;-42
2024/03/19 10:04:48;;;;;;;23.50;16.30;;;;;;;;;;5103867;28;20040;-51
2024/03/19 10:07:16;;;;;;;19.95;15.63;;;;;;;;;;5103567;28;20031;-45
2024/03/19 10:09:46;;;;;;;19.08;14.07;;;;;;;;;;5103550;28;20035;-51
2024/03/19 10:12:13;;;;;;;16.98;14.18;;;;;;;;;;5103612;28;20036;-54
2024/03/19 10:14:39;;;;;;;15.05;12.75;;;;;;;;;;5103757;28;20070;-45
2024/03/19 10:17:07;;;;;;;13.90;11.80;;;;;;;;;;5103452;28;20020;-46
2024/03/19 10:19:34;;;;;;;15.10;11.50;;;;;;;;;;5103493;28;20334;-45
2024/03/19 10:22:01;;;;;;;14.50;9.77;;;;;;;;;;5103479;28;20083;-56
2024/03/19 10:24:27;;;;;;;14.57;10.18;;;;;;;;;;5103401;28;20349;-52
2024/03/19 10:26:55;;;;;;;14.13;9.40;;;;;;;;;;5105005;28;20031;-53
2024/03/19 10:29:21;;;;;;;17.10;10.23;;;;;;;;;;5107087;28;20035;-51
2024/03/19 10:31:48;;;;;;;14.32;9.95;;;;;;;;;;5106956;28;20024;-51
2024/03/19 10:34:18;;;;;;;16.48;10.10;;;;;;;;;;5106970;28;20063;-61
2024/03/19 10:36:48;;;;;;;14.35;9.52;;;;;;;;;;5107131;28;20040;-55
2024/03/19 10:39:20;;;;;;;12.05;9.60;;;;;;;;;;5106789;28;20207;-40
2024/03/19 10:41:48;;;;;;;11.63;9.63;;;;;;;;;;5107032;28;20028;-40
2024/03/19 10:44:16;;;;;;;15.85;9.77;;;;;;;;;;5106857;28;20016;-40
2024/03/19 10:46:43;;;;;;;14.63;10.15;;;;;;;;;;5106637;28;20031;-40
2024/03/19 10:49:14;;;;;;;16.58;10.65;;;;;;;;;;5106617;28;20079;-39
2024/03/19 10:51:42;;;;;;;12.20;9.77;;;;;;;;;;5106780;28;20028;-43
2024/03/19 10:54:09;;;;;;;14.32;9.55;;;;;;;;;;5106425;28;20023;-39
2024/03/19 10:56:35;;;;;;;15.88;10.18;;;;;;;;;;5106682;28;20286;-47
2024/03/19 10:59:02;;;;;;;14.32;10.45;;;;;;;;;;5106553;28;20078;-44
2024/03/19 11:01:29;;;;;;;17.65;10.70;;;;;;;;;;5106387;28;20035;-40
2024/03/19 11:03:55;;;;;;;20.80;11.35;;;;;;;;;;5106461;28;20039;-39
2024/03/19 11:06:24;;;;;;;14.90;11.85;;;;;;;;;;5106896;28;20024;-40
2024/03/19 11:08:56;;;;;;;17.77;11.63;;;;;;;;;;5106075;28;20032;-39
2024/03/19 11:11:36;;;;;;;14.48;11.77;;;;;;;;;;5106580;28;20027;-42
2024/03/19 11:14:02;;;;;;;16.65;12.05;;;;;;;;;;5105963;28;20035;-41
2024/03/19 11:16:39;;;;;;;16.02;11.73;;;;;;;;;;5106221;28;20032;-40
2024/03/19 11:19:17;;;;;;;14.13;11.98;;;;;;;;;;5106024;28;20020;-45
2024/03/19 11:21:47;;;;;;;15.38;12.00;;;;;;;;;;5106010;28;20024;-42
2024/03/19 11:24:24;;;;;;;15.55;11.65;;;;;;;;;;5106264;28;20023;-43
2024/03/19 11:26:54;;;;;;;14.77;11.90;;;;;;;;;;5105982;28;20027;-48
2024/03/19 11:29:23;;;;;;;15.68;12.98;;;;;;;;;;5105808;28;20031;-45
2024/03/19 11:31:50;;;;;;;15.43;13.80;;;;;;;;;;5105700;28;20185;-40
2024/03/19 11:34:16;;;;;;;17.15;13.63;;;;;;;;;;5105969;28;20012;-53
2024/03/19 11:36:46;;;;;;;16.77;13.10;;;;;;;;;;5106057;28;20271;-47
2024/03/19 11:39:13;;;;;;;16.20;14.50;;;;;;;;;;5105543;28;20027;-43
2024/03/19 11:41:40;;;;;;;17.92;14.05;;;;;;;;;;5105864;28;20043;-41
2024/03/19 11:44:08;;;;;;;14.98;13.00;;;;;;;;;;5105463;28;20016;-47
2024/03/19 11:46:35;;;;;;;15.63;12.80;;;;;;;;;;5105373;28;20016;-44
2024/03/19 11:49:01;;;;;;;15.70;13.13;;;;;;;;;;5105567;28;20023;-45
2024/03/19 11:51:28;;;;;;;15.60;13.35;;;;;;;;;;5105448;28;20035;-39
2024/03/19 11:54:01;;;;;;;15.02;13.43;;;;;;;;;;5105305;28;20050;-39
2024/03/19 11:56:28;;;;;;;18.30;13.73;;;;;;;;;;5105467;28;20073;-44
2024/03/19 11:58:55;;;;;;;16.02;13.35;;;;;;;;;;5105295;28;20020;-44
2024/03/19 12:01:22;;;;;;;18.95;13.35;;;;;;;;;;5105523;28;20048;-51
2024/03/19 12:03:49;;;;;;;17.23;13.82;;;;;;;;;;5105318;28;20366;-47
2024/03/19 12:06:16;;;;;;;19.50;13.90;;;;;;;;;;5105732;28;20058;-55
2024/03/19 12:08:44;;;;;;;18.13;14.40;;;;;;;;;;5105025;28;20024;-50
2024/03/19 12:11:11;;;;;;;19.95;14.85;;;;;;;;;;5105662;28;20044;-53
2024/03/19 12:13:37;;;;;;;16.08;14.43;;;;;;;;;;5105283;28;20016;-53
2024/03/19 12:16:04;;;;;;;19.17;15.02;;;;;;;;;;5105384;28;20248;-55
2024/03/19 12:18:31;;;;;;;22.80;15.23;;;;;;;;;;5105165;28;20330;-57
2024/03/19 12:20:58;;;;;;;23.40;14.35;;;;;;;;;;5105430;28;20044;-57
2024/03/19 12:23:24;;;;;;;20.40;14.73;;;;;;;;;;5104810;28;20071;-53
2024/03/19 12:25:51;;;;;;;19.42;14.82;;;;;;;;;;5105381;28;20034;-54
2024/03/19 12:28:17;;;;;;;17.80;14.32;;;;;;;;;;5104879;28;20042;-53
2024/03/19 12:30:47;;;;;;;16.67;14.80;;;;;;;;;;5104962;28;20070;-53
2024/03/19 12:33:27;;;;;;;18.35;15.23;;;;;;;;;;5104797;28;20079;-54
2024/03/19 12:35:53;;;;;;;18.00;15.77;;;;;;;;;;5104630;28;20376;-53
2024/03/19 12:38:20;;;;;;;20.88;16.42;;;;;;;;;;5104590;28;20342;-56
2024/03/19 12:40:47;;;;;;;16.75;14.80;;;;;;;;;;5105036;28;20031;-58
2024/03/19 12:43:13;;;;;;;19.38;16.00;;;;;;;;;;5104582;28;20252;-54
2024/03/19 12:45:40;;;;;;;16.88;15.10;;;;;;;;;;5104771;28;20027;-41
2024/03/19 12:48:06;;;;;;;18.85;15.75;;;;;;;;;;5104616;28;20085;-44
2024/03/19 12:50:33;;;;;;;18.15;16.25;;;;;;;;;;5104311;28;20237;-42
2024/03/19 12:53:00;;;;;;;20.20;16.58;;;;;;;;;;5104348;28;20020;-41
2024/03/19 12:55:26;;;;;;;19.42;17.35;;;;;;;;;;5104783;28;20039;-41
2024/03/19 12:57:54;;;;;;;19.92;17.65;;;;;;;;;;5104675;28;20079;-41
2024/03/19 13:00:22;;;;;;;22.20;17.63;;;;;;;;;;5104586;28;20365;-40
2024/03/19 13:02:54;;;;;;;21.63;18.42;;;;;;;;;;5104389;28;20083;-46
2024/03/19 13:05:21;;;;;;;27.95;18.52;;;;;;;;;;5104577;28;20049;-47
2024/03/19 13:07:48;;;;;;;22.58;18.63;;;;;;;;;;5104103;28;20055;-48
2024/03/19 13:10:20;;;;;;;23.27;18.58;;;;;;;;;;5104350;28;20273;-46
2024/03/19 13:12:47;;;;;;;24.73;17.50;;;;;;;;;;5104109;28;20020;-42
2024/03/19 13:15:14;;;;;;;22.88;17.50;;;;;;;;;;5104372;28;20040;-49
2024/03/19 13:17:41;;;;;;;25.15;16.58;;;;;;;;;;5104123;28;20319;-46
2024/03/19 13:20:09;;;;;;;20.15;16.27;;;;;;;;;;5104177;28;20032;-49
2024/03/19 13:22:37;;;;;;;20.63;16.20;;;;;;;;;;5104068;28;20024;-46
2024/03/19 13:25:04;;;;;;;19.48;16.63;;;;;;;;;;5104204;28;20031;-46
2024/03/19 13:27:31;;;;;;;23.77;16.38;;;;;;;;;;5104199;28;20024;-44
2024/03/19 13:29:58;;;;;;;18.90;16.60;;;;;;;;;;5104098;28;20039;-47
2024/03/19 13:32:24;;;;;;;25.10;17.27;;;;;;;;;;5103942;28;20102;-52
2024/03/19 13:34:52;;;;;;;19.52;17.40;;;;;;;;;;5103844;28;20074;-38
2024/03/19 13:37:19;;;;;;;19.77;17.73;;;;;;;;;;5103885;28;20032;-39
2024/03/19 13:39:46;;;;;;;23.30;18.02;;;;;;;;;;5104192;28;20070;-40
2024/03/19 13:42:12;;;;;;;23.73;18.45;;;;;;;;;;5103868;28;20020;-43
2024/03/19 13:44:39;;;;;;;22.48;17.30;;;;;;;;;;5103849;28;20323;-39
2024/03/19 13:47:05;;;;;;;19.20;16.98;;;;;;;;;;5103824;28;20334;-43
2024/03/19 13:49:32;;;;;;;20.55;16.48;;;;;;;;;;5103885;28;20035;-46
2024/03/19 13:51:59;;;;;;;22.10;17.50;;;;;;;;;;5103641;28;20016;-45
2024/03/19 13:54:28;;;;;;;21.75;17.23;;;;;;;;;;5103791;28;20293;-44
2024/03/19 13:56:55;;;;;;;21.08;17.38;;;;;;;;;;5104036;28;20026;-44
2024/03/19 13:59:21;;;;;;;24.27;16.33;;;;;;;;;;5103861;28;20099;-43
2024/03/19 14:01:49;;;;;;;19.73;16.95;;;;;;;;;;5105198;28;20031;-42
2024/03/19 14:04:15;;;;;;;21.98;16.20;;;;;;;;;;5107647;28;20023;-42
2024/03/19 14:06:42;;;;;;;21.80;16.50;;;;;;;;;;5107467;28;20062;-42
2024/03/19 14:09:10;;;;;;;20.63;16.35;;;;;;;;;;5107514;28;20023;-49
2024/03/19 14:11:38;;;;;;;19.67;16.42;;;;;;;;;;5107574;28;20020;-51
2024/03/19 14:14:05;;;;;;;21.13;16.20;;;;;;;;;;5107213;28;20040;-48
2024/03/19 14:16:34;;;;;;;17.98;16.00;;;;;;;;;;5107379;28;20020;-48
2024/03/19 14:19:00;;;;;;;20.77;16.58;;;;;;;;;;5107368;28;20024;-48
2024/03/19 14:21:27;;;;;;;22.63;16.48;;;;;;;;;;5107364;28;20036;-49